Time;durP1;ratioP1;P1;durP2;ratioP2;P2;SDS_P1;SDS_P2;PMS_P1;PMS_P2;Temp;Humidity;BMP_temperature;BMP_pressure;BME280_temperature;BME280_humidity;BME280_pressure;Samples;Min_cycle;Max_cycle;Signal;HPM_P1;HPM_P2
2022/08/11 00:02:36;;;;;;;1.15;0.85;;;22.30;68.70;;;;;;5074214;28;20040;-64
2022/08/11 00:05:08;;;;;;;3.28;1.00;;;22.10;70.60;;;;;;5072908;28;20052;-66
2022/08/11 00:07:44;;;;;;;1.20;1.02;;;22.20;71.00;;;;;;5074497;28;20040;-66
2022/08/11 00:10:12;;;;;;;2.10;1.40;;;22.40;72.00;;;;;;5073147;28;20146;-66
2022/08/11 00:12:41;;;;;;;1.20;0.90;;;22.30;72.20;;;;;;5079920;28;20085;-66
2022/08/11 00:15:08;;;;;;;1.75;1.20;;;22.30;71.40;;;;;;5076819;28;20036;-64
2022/08/11 00:17:35;;;;;;;2.83;1.02;;;22.30;72.50;;;;;;5076787;28;20449;-63
2022/08/11 00:20:07;;;;;;;1.48;1.08;;;22.40;72.50;;;;;;5078063;28;20048;-64
2022/08/11 00:22:36;;;;;;;1.50;0.98;;;22.50;71.40;;;;;;5075645;28;20448;-65
2022/08/11 00:25:15;;;;;;;2.25;0.90;;;22.60;72.10;;;;;;5086891;28;20124;-64
2022/08/11 00:27:42;;;;;;;2.65;1.00;;;22.60;70.00;;;;;;5072546;28;20127;-64
2022/08/11 00:30:10;;;;;;;2.00;1.20;;;22.50;70.10;;;;;;5073427;28;20044;-64
2022/08/11 00:32:45;;;;;;;1.30;1.00;;;22.50;69.70;;;;;;5088015;28;20558;-65
2022/08/11 00:35:15;;;;;;;1.25;1.05;;;22.40;69.90;;;;;;5085202;28;20770;-65
2022/08/11 00:37:48;;;;;;;2.28;1.30;;;22.40;69.90;;;;;;5073887;28;20032;-64
2022/08/11 00:40:38;;;;;;;1.30;1.00;;;22.60;69.20;;;;;;5091279;28;20036;-65
2022/08/11 00:43:14;;;;;;;1.85;1.00;;;22.70;68.00;;;;;;5070704;28;20138;-64
2022/08/11 00:45:45;;;;;;;1.38;0.95;;;22.60;66.30;;;;;;5073746;28;20036;-65
2022/08/11 00:48:34;;;;;;;1.00;0.90;;;22.20;66.20;;;;;;5074279;28;20040;-63
2022/08/11 00:51:06;;;;;;;5.18;1.20;;;22.20;66.60;;;;;;5074573;28;20040;-64
2022/08/11 00:53:34;;;;;;;2.30;0.85;;;22.30;67.10;;;;;;5073715;28;20506;-65
2022/08/11 00:56:17;;;;;;;1.00;0.90;;;22.30;66.10;;;;;;5082633;28;20559;-64
2022/08/11 00:59:10;;;;;;;1.55;1.17;;;22.20;66.50;;;;;;5073350;28;20036;-65
2022/08/11 01:01:48;;;;;;;3.55;1.13;;;22.00;66.20;;;;;;5058880;28;20128;-65
2022/08/11 01:04:32;;;;;;;1.95;1.17;;;22.10;66.30;;;;;;5064427;28;20588;-64
2022/08/11 01:07:13;;;;;;;4.50;0.85;;;22.10;63.50;;;;;;5070749;28;20404;-65
2022/08/11 01:10:13;;;;;;;1.20;0.98;;;22.40;62.10;;;;;;5088721;28;20042;-66
2022/08/11 01:12:42;;;;;;;9.23;1.42;;;22.30;66.20;;;;;;5076595;28;20040;-65
2022/08/11 01:15:51;;;;;;;2.05;1.45;;;22.10;63.70;;;;;;5073043;28;20400;-63
2022/08/11 01:18:54;;;;;;;1.13;1.02;;;22.10;64.70;;;;;;5054478;28;20047;-64
2022/08/11 01:22:01;;;;;;;2.60;1.38;;;22.00;65.20;;;;;;5063605;28;20563;-64
2022/08/11 01:24:54;;;;;;;4.35;1.20;;;21.90;66.40;;;;;;5070361;28;20525;-65
2022/08/11 01:27:26;;;;;;;2.72;0.98;;;22.00;66.40;;;;;;5087399;28;20065;-63
2022/08/11 01:30:39;;;;;;;1.70;1.17;;;22.10;66.30;;;;;;5082908;28;20065;-66
2022/08/11 01:33:22;;;;;;;1.55;0.90;;;22.20;66.80;;;;;;5050952;28;20080;-65
2022/08/11 01:36:04;;;;;;;3.15;1.00;;;22.40;67.60;;;;;;5087563;28;20414;-65
2022/08/11 01:38:44;;;;;;;1.48;1.00;;;22.30;67.60;;;;;;5090868;28;20040;-66
2022/08/11 01:44:53;;;;;;;1.55;1.45;;;;;;;;;;5079968;28;20047;-65
2022/08/11 01:47:50;;;;;;;1.80;1.15;;;21.60;64.00;;;;;;5058328;28;20052;-65
2022/08/11 01:50:36;;;;;;;1.38;0.77;;;21.40;65.50;;;;;;5067961;28;20036;-65
2022/08/11 01:53:34;;;;;;;2.95;1.13;;;21.40;71.60;;;;;;5064982;28;20519;-65
2022/08/11 01:56:28;;;;;;;1.27;1.00;;;21.40;65.10;;;;;;5077997;28;20081;-65
2022/08/11 01:59:25;;;;;;;1.02;0.90;;;21.60;64.70;;;;;;5069466;28;20042;-65
2022/08/11 02:02:04;;;;;;;1.42;1.30;;;21.80;64.20;;;;;;5074880;28;20048;-65
2022/08/11 02:04:53;;;;;;;4.82;1.10;;;21.90;63.70;;;;;;5067621;28;20119;-65
2022/08/11 02:07:54;;;;;;;6.70;1.10;;;22.00;75.70;;;;;;5072559;28;20051;-65
2022/08/11 02:14:02;;;;;;;1.60;1.13;;;21.90;75.10;;;;;;5074195;28;20646;-65
2022/08/11 02:16:47;;;;;;;1.63;1.00;;;21.90;75.40;;;;;;5057029;28;20036;-65
2022/08/11 02:25:22;;;;;;;3.70;1.23;;;22.20;74.80;;;;;;5067956;28;20051;-65
2022/08/11 02:27:58;;;;;;;1.30;1.10;;;22.20;74.50;;;;;;5068275;28;20036;-64
2022/08/11 02:30:31;;;;;;;1.35;0.90;;;22.10;74.70;;;;;;5076858;28;20036;-63
2022/08/11 02:33:22;;;;;;;1.90;1.10;;;21.80;75.50;;;;;;5079888;28;20142;-65
2022/08/11 02:36:12;;;;;;;1.20;1.02;;;21.80;76.40;;;;;;5084680;28;20048;-64
2022/08/11 02:39:11;;;;;;;1.10;1.00;;;21.80;76.30;;;;;;5069775;28;20040;-64
2022/08/11 02:44:36;;;;;;;1.27;1.00;;;22.10;74.20;;;;;;5073721;28;20079;-63
2022/08/11 02:47:16;;;;;;;3.08;1.10;;;21.90;74.00;;;;;;5086912;28;20519;-62
2022/08/11 02:49:56;;;;;;;2.85;1.27;;;21.70;75.80;;;;;;5059421;28;20524;-62
2022/08/11 02:52:28;;;;;;;3.45;1.15;;;21.70;74.10;;;;;;5088481;28;20036;-62
2022/08/11 02:55:13;;;;;;;1.30;1.15;;;21.80;73.10;;;;;;5090312;28;20518;-63
2022/08/11 02:57:58;;;;;;;3.00;1.38;;;22.00;73.90;;;;;;5082622;28;20090;-61
2022/08/11 03:00:26;;;;;;;1.40;1.27;;;22.00;72.30;;;;;;5083565;28;20036;-64
2022/08/11 03:03:32;;;;;;;4.18;1.40;;;21.90;72.70;;;;;;5065558;28;20048;-63
2022/08/11 03:06:28;;;;;;;2.00;1.30;;;21.70;74.30;;;;;;5076005;28;20072;-62
2022/08/11 03:09:17;;;;;;;2.75;1.70;;;21.50;72.90;;;;;;5090606;28;20036;-63
2022/08/11 03:18:15;;;;;;;1.27;1.00;;;21.20;65.80;;;;;;5077644;28;20088;-66
2022/08/11 03:20:56;;;;;;;3.88;2.25;;;20.90;82.50;;;;;;5083532;28;20047;-64
2022/08/11 03:23:38;;;;;;;1.45;1.17;;;20.80;81.50;;;;;;5077802;28;20051;-63
2022/08/11 03:26:13;;;;;;;1.48;1.20;;;20.70;79.60;;;;;;5072328;28;20036;-65
2022/08/11 03:29:00;;;;;;;1.52;1.00;;;21.10;78.90;;;;;;5073867;28;20119;-61
2022/08/11 03:31:51;;;;;;;1.20;1.10;;;21.10;78.80;;;;;;5091210;28;20051;-65
2022/08/11 03:34:24;;;;;;;2.50;1.63;;;21.10;79.60;;;;;;5095437;28;20028;-63
2022/08/11 03:37:47;;;;;;;5.72;1.83;;;21.10;79.50;;;;;;5095603;28;20052;-64
2022/08/11 03:41:41;;;;;;;2.70;1.45;;;20.70;80.40;;;;;;5091131;28;20140;-64
2022/08/11 03:43:20;;;;;;;;;;;20.60;87.60;;;;;;5075679;28;20087;-63
2022/08/11 03:46:05;;;;;;;1.40;1.30;;;20.80;86.60;;;;;;5075323;28;19935;-63
2022/08/11 03:48:56;;;;;;;1.90;1.30;;;21.00;84.50;;;;;;5074753;28;20403;-64
2022/08/11 03:51:31;;;;;;;2.45;1.48;;;21.20;83.40;;;;;;5076250;28;20431;-64
2022/08/11 03:54:18;;;;;;;1.10;0.98;;;20.70;84.80;;;;;;5075179;28;20028;-62
2022/08/11 03:56:59;;;;;;;4.68;1.67;;;20.60;85.10;;;;;;5074839;28;20040;-62
2022/08/11 04:00:02;;;;;;;1.70;1.33;;;20.60;86.10;;;;;;5074632;28;20037;-62
2022/08/11 04:02:46;;;;;;;3.33;1.70;;;20.90;83.60;;;;;;5054782;28;20068;-63
2022/08/11 04:05:39;;;;;;;1.90;1.25;;;20.80;84.50;;;;;;5054782;28;20566;-64
2022/08/11 04:08:36;;;;;;;2.03;1.40;;;20.30;69.40;;;;;;5054276;28;20124;-64
2022/08/11 04:11:28;;;;;;;1.85;1.08;;;20.20;69.40;;;;;;5084732;28;20123;-65
2022/08/11 04:18:02;;;;;;;4.80;1.92;;;20.30;68.20;;;;;;5094823;28;20038;-64
2022/08/11 04:21:02;;;;;;;1.65;1.17;;;20.20;68.60;;;;;;5085128;28;20676;-63
2022/08/11 04:24:02;;;;;;;2.40;1.75;;;20.10;69.20;;;;;;5074210;28;20052;-64
2022/08/11 04:26:46;;;;;;;6.93;1.60;;;20.10;68.60;;;;;;5074363;28;20036;-64
2022/08/11 04:29:49;;;;;;;1.70;1.50;;;20.20;69.80;;;;;;5074568;28;20102;-64
2022/08/11 04:32:57;;;;;;;1.90;1.52;;;20.40;68.80;;;;;;5074067;28;20039;-63
2022/08/11 04:35:48;;;;;;;2.40;2.00;;;20.50;67.90;;;;;;5073995;28;20041;-62
2022/08/11 04:38:43;;;;;;;2.00;1.30;;;20.50;67.60;;;;;;5074224;28;20038;-62
2022/08/11 04:44:56;;;;;;;1.95;1.13;;;20.40;67.70;;;;;;5094289;28;20046;-63
2022/08/11 05:03:09;;;;;;;2.08;1.38;;;20.40;68.30;;;;;;5074788;28;20075;-62
2022/08/11 05:06:05;;;;;;;1.40;1.30;;;20.40;69.10;;;;;;5073733;28;20072;-64
2022/08/11 05:09:09;;;;;;;2.25;0.90;;;20.40;69.40;;;;;;5073348;28;20523;-65
2022/08/11 05:12:13;;;;;;;2.92;1.20;;;20.10;69.70;;;;;;5073378;28;20411;-63
2022/08/11 05:34:55;;;;;;;2.95;1.60;;;19.90;71.10;;;;;;5091428;28;20108;-63
2022/08/11 05:37:30;;;;;;;9.00;1.50;;;20.00;72.20;;;;;;5073263;28;20047;-62
2022/08/11 05:57:25;;;;;;;5.22;1.45;;;21.10;69.30;;;;;;5072760;28;20104;-63
2022/08/11 05:59:58;;;;;;;1.38;1.15;;;;;;;;;;5072811;28;20506;-63
2022/08/11 06:02:24;;;;;;;1.30;1.00;;;22.00;67.40;;;;;;5072867;28;20090;-63
2022/08/11 06:04:58;;;;;;;1.40;1.10;;;21.80;67.30;;;;;;5072980;28;20036;-63
2022/08/11 06:07:30;;;;;;;3.83;1.42;;;22.10;67.20;;;;;;5070135;28;20048;-63
2022/08/11 06:09:58;;;;;;;1.67;1.33;;;22.80;65.80;;;;;;5077049;28;20497;-64
2022/08/11 06:12:36;;;;;;;4.82;1.08;;;;;;;;;;5072614;28;20036;-65
2022/08/11 06:15:11;;;;;;;1.73;1.25;;;24.10;71.00;;;;;;5072720;28;20094;-64
2022/08/11 06:17:45;;;;;;;2.40;1.30;;;;;;;;;;5072092;28;20036;-67
2022/08/11 06:20:11;;;;;;;1.20;1.00;;;;;;;;;;5072095;28;20078;-67
2022/08/11 06:22:46;;;;;;;4.80;1.15;;;;;;;;;;5072803;28;20047;-67
2022/08/11 06:25:13;;;;;;;1.63;1.30;;;;;;;;;;5072538;28;20165;-65
2022/08/11 06:27:42;;;;;;;2.00;1.30;;;;;;;;;;5072692;28;20514;-66
2022/08/11 06:30:13;;;;;;;3.67;1.13;;;23.60;94.70;;;;;;5072957;28;20055;-66
2022/08/11 06:32:44;;;;;;;1.83;1.02;;;23.70;68.30;;;;;;5075624;28;20086;-65
2022/08/11 06:35:10;;;;;;;;;;;;;;;;;;5077219;28;20090;-65
2022/08/11 06:37:48;;;;;;;1.95;1.30;;;22.40;70.10;;;;;;5076346;28;19912;-65
2022/08/11 06:40:34;;;;;;;1.30;0.95;;;23.70;67.60;;;;;;5076296;28;20044;-65
2022/08/11 06:43:17;;;;;;;1.33;1.05;;;24.00;67.90;;;;;;5076168;28;20125;-65
2022/08/11 06:46:04;;;;;;;3.28;1.35;;;23.90;68.10;;;;;;5073901;28;20048;-66
2022/08/11 06:48:33;;;;;;;2.88;1.90;;;24.00;66.60;;;;;;5065447;28;20112;-65
2022/08/11 06:51:12;;;;;;;2.45;1.73;;;23.90;66.00;;;;;;5056669;28;20040;-65
2022/08/11 06:53:44;;;;;;;1.85;1.45;;;23.70;66.50;;;;;;5056119;28;20095;-65
2022/08/11 07:01:47;;;;;;;1.67;1.52;;;;;;;;;;5056221;28;20392;-65
2022/08/11 07:04:20;;;;;;;2.05;1.80;;;24.30;94.10;;;;;;5054756;28;20063;-64
2022/08/11 07:15:42;;;;;;;1.60;1.20;;;25.30;61.90;;;;;;5075624;28;20398;-63
2022/08/11 07:30:10;;;;;;;1.75;1.35;;;25.20;61.20;;;;;;5074755;28;20443;-64
2022/08/11 07:32:50;;;;;;;1.75;1.27;;;25.50;62.20;;;;;;5074573;28;20044;-64
2022/08/11 07:35:18;;;;;;;3.00;1.40;;;;;;;;;;5075268;28;20093;-66
2022/08/11 07:37:49;;;;;;;4.25;1.38;;;26.60;59.40;;;;;;5075485;28;20140;-64
2022/08/11 07:40:19;;;;;;;1.60;1.13;;;;;;;;;;5075422;28;20036;-65
2022/08/11 07:42:45;;;;;;;2.45;1.23;;;26.60;59.10;;;;;;5074763;28;20048;-65
2022/08/11 07:53:28;;;;;;;2.47;1.60;;;28.00;59.30;;;;;;5075273;28;20086;-68
2022/08/11 07:56:00;;;;;;;2.53;1.60;;;27.80;58.80;;;;;;5075150;28;20040;-67
2022/08/11 08:17:56;;;;;;;2.63;1.90;;;28.70;58.90;;;;;;5074875;28;20067;-66
2022/08/11 08:20:29;;;;;;;2.08;1.70;;;28.80;58.40;;;;;;5074716;28;20045;-65
2022/08/11 08:23:00;;;;;;;2.63;1.40;;;28.90;58.10;;;;;;5072779;28;20079;-67
2022/08/11 08:25:30;;;;;;;1.48;1.25;;;29.50;58.40;;;;;;5074221;28;20089;-65
2022/08/11 08:27:58;;;;;;;1.98;1.40;;;29.50;58.30;;;;;;5069843;28;20445;-67
2022/08/11 08:33:22;;;;;;;2.40;1.58;;;28.70;57.70;;;;;;5054133;28;20120;-67
2022/08/11 08:36:10;;;;;;;2.10;1.70;;;28.80;57.10;;;;;;5054119;28;20049;-64
2022/08/11 08:38:41;;;;;;;2.63;1.45;;;28.80;57.50;;;;;;5071917;28;20072;-65
2022/08/11 08:41:10;;;;;;;2.00;1.40;;;28.90;57.20;;;;;;5073261;28;20044;-67
2022/08/11 08:43:37;;;;;;;6.32;1.70;;;28.80;58.40;;;;;;5072164;28;20070;-65
2022/08/11 08:46:08;;;;;;;1.85;1.40;;;29.40;58.10;;;;;;5071907;28;20048;-65
2022/08/11 08:48:35;;;;;;;2.38;1.60;;;29.70;57.10;;;;;;5072651;28;20470;-65
2022/08/11 08:53:53;;;;;;;2.88;1.70;;;29.50;57.20;;;;;;5065818;28;20126;-64
2022/08/11 08:56:27;;;;;;;4.22;1.50;;;29.30;56.70;;;;;;5071166;28;20044;-68
2022/08/11 08:58:54;;;;;;;3.42;1.92;;;29.80;57.60;;;;;;5070900;28;20063;-67
2022/08/11 09:01:21;;;;;;;3.30;1.83;;;29.90;58.10;;;;;;5071151;28;20028;-69
2022/08/11 09:03:48;;;;;;;3.05;1.85;;;30.20;57.70;;;;;;5071056;28;20048;-69
2022/08/11 09:06:17;;;;;;;3.33;1.90;;;30.20;56.60;;;;;;5070124;28;20036;-67
2022/08/11 09:08:44;;;;;;;2.60;2.03;;;30.10;56.10;;;;;;5070930;28;20152;-68
2022/08/11 09:13:58;;;;;;;3.08;1.85;;;30.00;56.70;;;;;;5069385;28;20089;-66
2022/08/11 09:16:25;;;;;;;2.42;2.10;;;29.80;56.80;;;;;;5071461;28;20039;-65
2022/08/11 09:18:52;;;;;;;2.13;1.70;;;30.10;56.20;;;;;;5071319;28;20044;-68
2022/08/11 09:21:22;;;;;;;4.57;1.80;;;30.10;55.80;;;;;;5071843;28;20043;-66
2022/08/11 09:29:20;;;;;;;3.40;2.05;;;30.20;55.90;;;;;;5071171;28;20089;-66
2022/08/11 09:31:47;;;;;;;3.20;2.45;;;30.50;56.60;;;;;;5071360;28;20044;-65
2022/08/11 09:34:15;;;;;;;1.95;1.50;;;30.40;56.90;;;;;;5070987;28;20507;-66
2022/08/11 09:42:16;;;;;;;7.15;1.83;;;31.00;56.30;;;;;;5061992;28;20089;-69
2022/08/11 09:44:49;;;;;;;4.03;1.85;;;31.10;57.00;;;;;;5070111;28;20507;-67
2022/08/11 09:47:28;;;;;;;2.53;1.90;;;31.20;56.10;;;;;;5072457;28;20055;-66
2022/08/11 09:49:59;;;;;;;5.23;1.80;;;31.00;55.10;;;;;;5072983;28;20507;-66
2022/08/11 09:52:26;;;;;;;1.55;1.45;;;31.40;56.10;;;;;;5071951;28;20131;-67
2022/08/11 09:54:53;;;;;;;1.48;1.38;;;31.70;55.70;;;;;;5070985;28;20040;-66
2022/08/11 10:00:10;;;;;;;2.75;1.85;;;31.60;55.00;;;;;;5072265;28;20083;-66
2022/08/11 10:02:47;;;;;;;2.00;1.80;;;31.30;56.10;;;;;;5055770;28;20091;-67
2022/08/11 10:08:02;;;;;;;2.08;1.80;;;31.00;56.40;;;;;;5049948;28;20099;-66
2022/08/11 10:10:33;;;;;;;4.10;2.60;;;31.20;55.30;;;;;;5051149;28;20377;-65
2022/08/11 10:13:05;;;;;;;2.83;1.90;;;31.00;55.80;;;;;;5051213;28;20040;-66
2022/08/11 10:15:33;;;;;;;2.80;1.83;;;31.10;55.80;;;;;;5064152;28;20101;-65
2022/08/11 10:20:58;;;;;;;2.95;1.80;;;31.10;56.00;;;;;;5050360;28;20094;-65
2022/08/11 10:28:58;;;;;;;3.72;2.00;;;30.90;56.60;;;;;;5052393;28;20043;-65
2022/08/11 10:34:09;;;;;;;2.22;1.83;;;31.20;55.40;;;;;;5060456;28;20171;-66
2022/08/11 10:36:52;;;;;;;2.95;1.70;;;31.00;55.60;;;;;;5071603;28;20384;-67
2022/08/11 10:39:19;;;;;;;5.25;1.92;;;31.20;55.60;;;;;;5072295;28;20403;-68
2022/08/11 10:44:40;;;;;;;2.55;2.05;;;31.40;55.50;;;;;;5070607;28;20066;-66
2022/08/11 11:00:58;;;;;;;2.05;1.80;;;31.30;55.40;;;;;;5070424;28;20086;-64
2022/08/11 11:03:28;;;;;;;3.03;2.00;;;31.10;55.50;;;;;;5069917;28;20056;-65
2022/08/11 11:06:02;;;;;;;2.22;1.75;;;31.60;55.50;;;;;;5070404;28;20039;-64
2022/08/11 11:11:16;;;;;;;4.38;1.83;;;31.70;55.20;;;;;;5052162;28;20405;-64
2022/08/11 11:19:19;;;;;;;3.30;1.98;;;32.00;55.00;;;;;;5051357;28;20229;-65
2022/08/11 11:21:50;;;;;;;5.35;2.03;;;32.30;54.30;;;;;;5053989;28;20044;-65
2022/08/11 11:24:49;;;;;;;2.00;1.80;;;31.70;54.30;;;;;;5055407;28;20055;-64
2022/08/11 11:27:50;;;;;;;2.55;1.83;;;31.60;54.60;;;;;;5059723;28;20404;-64
2022/08/11 11:30:17;;;;;;;3.55;2.00;;;31.60;54.90;;;;;;5072740;28;20036;-65
2022/08/11 11:33:06;;;;;;;3.75;1.92;;;31.30;54.40;;;;;;5072893;28;20084;-63
2022/08/11 11:36:00;;;;;;;4.90;2.00;;;30.80;54.00;;;;;;5072541;28;20069;-64
2022/08/11 11:38:28;;;;;;;2.40;1.80;;;31.00;54.60;;;;;;5071615;28;20048;-65
2022/08/11 11:43:38;;;;;;;2.75;1.92;;;31.60;54.20;;;;;;5073204;28;20059;-65
2022/08/11 11:46:06;;;;;;;2.72;2.00;;;31.30;54.10;;;;;;5074768;28;20032;-64
2022/08/11 11:48:34;;;;;;;2.10;1.85;;;31.90;52.80;;;;;;5073581;28;20439;-64
2022/08/11 11:51:00;;;;;;;2.25;1.85;;;31.70;52.90;;;;;;5073332;28;20085;-64
2022/08/11 11:53:26;;;;;;;3.28;1.83;;;31.90;52.80;;;;;;5072966;28;20043;-65
2022/08/11 11:55:52;;;;;;;3.85;2.40;;;31.90;52.80;;;;;;5072942;28;20574;-67
2022/08/11 12:01:15;;;;;;;2.10;1.95;;;31.90;53.70;;;;;;5073485;28;20040;-62
2022/08/11 12:03:45;;;;;;;2.67;1.80;;;31.50;53.40;;;;;;5072730;28;20036;-64
2022/08/11 12:06:14;;;;;;;2.58;2.00;;;31.80;53.20;;;;;;5072303;28;20036;-64
2022/08/11 12:08:41;;;;;;;2.53;2.33;;;31.80;52.80;;;;;;5073354;28;20040;-63
2022/08/11 12:13:58;;;;;;;3.05;2.45;;;32.30;53.00;;;;;;5074660;28;20621;-62
2022/08/11 12:16:25;;;;;;;2.38;2.03;;;32.40;52.40;;;;;;5073045;28;20037;-62
2022/08/11 12:18:55;;;;;;;2.22;1.85;;;32.30;52.40;;;;;;5072648;28;20220;-63
2022/08/11 12:21:22;;;;;;;2.67;1.92;;;32.50;51.90;;;;;;5072109;28;20170;-64
2022/08/11 12:29:20;;;;;;;3.92;1.83;;;32.20;52.30;;;;;;5072962;28;20411;-64
2022/08/11 12:31:47;;;;;;;3.67;2.28;;;31.80;51.90;;;;;;5072122;28;20048;-65
2022/08/11 12:34:15;;;;;;;2.40;2.10;;;32.00;52.10;;;;;;5071734;28;20067;-64
2022/08/11 12:37:04;;;;;;;2.13;1.83;;;32.60;52.10;;;;;;5072918;28;20125;-64
2022/08/11 12:45:29;;;;;;;3.20;2.17;;;32.10;52.10;;;;;;5074316;28;19922;-65
2022/08/11 12:53:45;;;;;;;2.60;1.80;;;32.60;51.60;;;;;;5054219;28;20523;-64
2022/08/11 13:07:15;;;;;;;3.03;2.10;;;32.70;51.00;;;;;;5053753;28;20036;-64
2022/08/11 13:09:43;;;;;;;2.42;2.10;;;32.90;50.90;;;;;;5053871;28;20037;-64
2022/08/11 13:14:54;;;;;;;2.28;2.00;;;32.70;50.90;;;;;;5053732;28;20087;-64
2022/08/11 13:17:21;;;;;;;2.33;2.13;;;32.60;50.00;;;;;;5053867;28;20072;-64
2022/08/11 13:19:48;;;;;;;5.07;1.90;;;32.80;50.60;;;;;;5053462;28;20075;-64
2022/08/11 13:22:18;;;;;;;4.20;1.90;;;32.80;49.90;;;;;;5053606;28;20037;-64
2022/08/11 13:24:44;;;;;;;;;;;32.70;50.30;;;;;;5054051;28;20124;-64
2022/08/11 13:27:12;;;;;;;2.25;2.05;;;32.90;50.60;;;;;;5065738;28;19961;-64
2022/08/11 13:29:41;;;;;;;3.20;2.33;;;33.10;50.20;;;;;;5073570;28;20044;-64
2022/08/11 13:32:08;;;;;;;2.35;2.00;;;33.10;50.90;;;;;;5073308;28;20076;-64
2022/08/11 13:34:40;;;;;;;3.10;2.20;;;33.10;50.10;;;;;;5072228;28;20396;-64
2022/08/11 13:37:08;;;;;;;4.15;2.17;;;33.00;50.80;;;;;;5059067;28;20049;-64
2022/08/11 13:39:35;;;;;;;2.60;2.00;;;32.80;50.90;;;;;;5069542;28;20453;-64
2022/08/11 13:42:03;;;;;;;4.55;2.42;;;32.50;50.70;;;;;;5062861;28;20146;-63
2022/08/11 13:44:32;;;;;;;2.63;1.98;;;31.70;50.70;;;;;;5059542;28;20480;-63
2022/08/11 13:47:03;;;;;;;3.53;1.90;;;32.30;51.60;;;;;;5053163;28;20041;-64
2022/08/11 13:49:30;;;;;;;4.25;2.00;;;32.50;50.20;;;;;;5053679;28;20044;-63
2022/08/11 13:51:57;;;;;;;3.72;2.03;;;32.40;50.20;;;;;;5054189;28;20037;-64
2022/08/11 13:54:26;;;;;;;2.85;2.17;;;32.50;51.10;;;;;;5090056;28;20119;-64
2022/08/11 13:56:54;;;;;;;2.95;2.30;;;32.90;50.40;;;;;;5090054;28;20119;-64
2022/08/11 13:59:24;;;;;;;2.70;2.13;;;32.80;50.60;;;;;;5093160;28;20068;-64
2022/08/11 14:02:03;;;;;;;4.28;2.00;;;32.80;50.60;;;;;;5093202;28;20038;-64
2022/08/11 14:05:01;;;;;;;3.20;2.10;;;32.80;50.30;;;;;;5093200;28;20464;-64
2022/08/11 14:07:36;;;;;;;2.85;2.10;;;32.90;51.00;;;;;;5085172;28;20075;-64
2022/08/11 14:10:03;;;;;;;2.97;2.17;;;32.80;50.60;;;;;;5093177;28;20042;-64
2022/08/11 14:15:39;;;;;;;1.65;1.55;;;32.50;50.30;;;;;;5093002;28;20043;-64
2022/08/11 14:18:12;;;;;;;3.30;2.78;;;32.70;50.60;;;;;;5092991;28;20051;-64
2022/08/11 14:23:38;;;;;;;2.92;2.30;;;32.90;50.60;;;;;;5092640;28;20544;-64
2022/08/11 14:28:54;;;;;;;3.90;2.03;;;32.50;50.50;;;;;;5070837;28;20105;-63
2022/08/11 14:31:24;;;;;;;3.35;2.35;;;32.60;50.60;;;;;;5070872;28;20041;-64
2022/08/11 14:33:52;;;;;;;4.13;1.90;;;32.80;50.50;;;;;;5069095;28;20046;-64
2022/08/11 14:36:21;;;;;;;2.10;1.90;;;32.40;50.50;;;;;;5073386;28;20039;-63
2022/08/11 14:38:48;;;;;;;2.80;2.15;;;32.10;50.40;;;;;;5072066;28;20504;-64
2022/08/11 14:49:29;;;;;;;4.55;2.00;;;32.60;51.10;;;;;;5069873;28;20052;-64
2022/08/11 14:51:56;;;;;;;4.13;2.10;;;32.60;51.10;;;;;;5070078;28;20036;-64
2022/08/11 14:57:12;;;;;;;;;;;32.40;50.80;;;;;;5058277;28;20514;-64
2022/08/11 14:59:39;;;;;;;5.75;2.38;;;32.40;50.80;;;;;;5073207;28;19908;-63
2022/08/11 15:04:50;;;;;;;2.00;1.77;;;32.90;50.80;;;;;;5075067;28;20059;-63
2022/08/11 15:07:16;;;;;;;2.28;1.90;;;32.90;50.80;;;;;;5075651;28;20044;-63
2022/08/11 15:09:46;;;;;;;2.20;1.95;;;32.90;51.00;;;;;;5075315;28;20089;-64
2022/08/11 15:12:17;;;;;;;2.53;2.00;;;32.90;50.90;;;;;;5073831;28;20097;-64
2022/08/11 15:17:34;;;;;;;1.80;1.70;;;32.70;51.50;;;;;;5073166;28;20043;-63
2022/08/11 15:25:37;;;;;;;2.22;1.80;;;32.60;50.80;;;;;;5071723;28;20090;-63
2022/08/11 15:48:10;;;;;;;2.22;1.70;;;32.80;51.50;;;;;;5054949;28;20087;-64
2022/08/11 15:50:42;;;;;;;3.95;2.08;;;32.40;51.40;;;;;;5065610;28;20047;-63
2022/08/11 15:53:16;;;;;;;1.77;1.63;;;32.30;51.20;;;;;;5064058;28;20411;-64
2022/08/11 15:55:43;;;;;;;2.88;1.77;;;32.30;51.30;;;;;;5067049;28;20028;-65
2022/08/11 16:04:13;;;;;;;2.30;2.08;;;32.30;51.50;;;;;;5067538;28;20063;-63
2022/08/11 16:07:09;;;;;;;3.50;2.08;;;32.30;52.00;;;;;;5071134;28;20102;-63
2022/08/11 16:09:45;;;;;;;3.25;2.40;;;32.20;52.70;;;;;;5071021;28;20060;-62
2022/08/11 16:12:17;;;;;;;4.85;2.10;;;32.00;53.20;;;;;;5069792;28;20086;-62
2022/08/11 16:17:40;;;;;;;3.75;1.98;;;32.00;52.90;;;;;;5072376;28;20098;-62
2022/08/11 16:20:08;;;;;;;2.45;2.25;;;31.80;52.90;;;;;;5071495;28;20052;-63
2022/08/11 16:22:42;;;;;;;2.85;2.20;;;32.00;52.90;;;;;;5073730;28;20055;-63
2022/08/11 16:25:12;;;;;;;6.82;2.38;;;32.00;52.90;;;;;;5076510;28;20048;-64
2022/08/11 16:27:42;;;;;;;2.90;2.10;;;32.00;53.00;;;;;;5082433;28;20383;-63
2022/08/11 16:30:09;;;;;;;2.22;2.00;;;32.10;53.10;;;;;;5069007;28;20064;-62
2022/08/11 16:32:40;;;;;;;2.90;1.90;;;32.10;53.10;;;;;;5075648;28;20040;-62
2022/08/11 16:40:52;;;;;;;2.03;1.83;;;31.60;53.30;;;;;;5067724;28;20127;-62
2022/08/11 16:48:59;;;;;;;3.08;2.08;;;31.70;53.50;;;;;;5071788;28;20082;-63
2022/08/11 16:51:27;;;;;;;2.22;1.90;;;31.60;53.30;;;;;;5070229;28;20649;-62
2022/08/11 16:53:54;;;;;;;2.80;2.03;;;31.50;53.50;;;;;;5070089;28;20048;-61
2022/08/11 16:56:28;;;;;;;2.45;1.92;;;31.60;53.70;;;;;;5069939;28;20059;-62
2022/08/11 16:59:14;;;;;;;2.70;1.80;;;31.60;53.60;;;;;;5070148;28;20127;-62
2022/08/11 17:13:07;;;;;;;1.90;1.70;;;31.60;53.70;;;;;;5071624;28;20091;-63
2022/08/11 17:13:57;;;;;;;2.15;1.95;;;31.10;53.50;;;;;;5070422;28;20117;-62
2022/08/11 17:16:26;;;;;;;;;;;31.10;53.40;;;;;;5072307;28;20527;-62
2022/08/11 17:19:06;;;;;;;2.15;1.95;;;31.10;53.80;;;;;;5069693;28;19920;-62
2022/08/11 17:24:40;;;;;;;5.93;2.10;;;31.10;53.70;;;;;;5071330;28;20051;-62
2022/08/11 17:27:28;;;;;;;4.80;1.77;;;31.00;53.60;;;;;;5072286;28;20131;-61
2022/08/11 17:29:58;;;;;;;4.32;2.00;;;30.90;53.80;;;;;;5070939;28;20040;-62
2022/08/11 17:35:31;;;;;;;1.92;1.70;;;30.70;53.50;;;;;;5070156;28;20468;-63
2022/08/11 17:38:03;;;;;;;2.92;2.30;;;30.70;53.70;;;;;;5066178;28;20044;-63
2022/08/11 17:40:31;;;;;;;3.50;2.00;;;30.70;53.70;;;;;;5071051;28;20064;-64
2022/08/11 17:48:38;;;;;;;1.88;1.75;;;30.60;54.20;;;;;;5071085;28;20086;-64
2022/08/11 17:59:50;;;;;;;4.88;1.73;;;30.50;54.00;;;;;;5071639;28;20044;-64
2022/08/11 17:59:51;;;;;;;2.53;1.67;;;30.30;53.70;;;;;;5064359;28;20079;-64
2022/08/11 18:05:05;;;;;;;2.00;1.80;;;30.20;53.90;;;;;;5072541;28;20051;-63
